Terminal Aerodrome Forecast
Issued by NWS

Home | Current Version | Previous Version | Text Only | Print | Product List | Glossary Off
Versions: 1 2 3 4 5 6 7 8 9 10 11 12 13 14 15 16 17

000
FTUS43 KPAH 021139
TAFCGI
TAF
KCGI 021139Z 0212/0312 02008KT P6SM SCT250
     FM021500 05008KT P6SM BKN250
     FM030000 08006KT P6SM BKN040
     FM030500 12005KT P6SM OVC015=

USA.gov is the U.S. government's official web portal to all federal, state and local government web resources and services.